Time;durP1;ratioP1;P1;durP2;ratioP2;P2;SDS_P1;SDS_P2;PMS_P1;PMS_P2;Temp;Humidity;BMP_temperature;BMP_pressure;BME280_temperature;BME280_humidity;BME280_pressure;Samples;Min_cycle;Max_cycle;Signal;HPM_P1;HPM_P2
2023/07/05 00:00:14;;;;;;;12.40;6.20;;;;;;;;;;5031071;28;20014;-67
2023/07/05 00:02:39;;;;;;;9.52;5.20;;;;;;;;;;5013013;28;20042;-67
2023/07/05 00:05:05;;;;;;;12.80;6.15;;;;;;;;;;5013759;28;20037;-67
2023/07/05 00:07:30;;;;;;;10.10;4.85;;;;;;;;;;5021067;28;20021;-66
2023/07/05 00:09:55;;;;;;;13.32;5.70;;;;;;;;;;5027923;28;20033;-66
2023/07/05 00:12:21;;;;;;;11.00;4.68;;;;;;;;;;5029111;28;20033;-66
2023/07/05 00:14:46;;;;;;;10.45;4.85;;;;;;;;;;5023808;28;20129;-66
2023/07/05 00:17:11;;;;;;;13.32;5.05;;;;;;;;;;5019540;28;20045;-66
2023/07/05 00:19:36;;;;;;;12.30;5.20;;;;;;;;;;5018682;28;20419;-66
2023/07/05 00:22:02;;;;;;;10.93;4.95;;;;;;;;;;5022909;28;20025;-67
2023/07/05 00:24:28;;;;;;;12.43;5.05;;;;;;;;;;5014894;28;20029;-66
2023/07/05 00:26:53;;;;;;;12.73;5.60;;;;;;;;;;5025935;28;20490;-66
2023/07/05 00:29:18;;;;;;;9.75;4.78;;;;;;;;;;5020381;28;20022;-66
2023/07/05 00:31:44;;;;;;;8.52;4.78;;;;;;;;;;5027863;28;20036;-66
2023/07/05 00:34:09;;;;;;;11.55;5.10;;;;;;;;;;5014335;28;20066;-66
2023/07/05 00:36:34;;;;;;;9.30;4.22;;;;;;;;;;5020561;28;20025;-66
2023/07/05 00:38:59;;;;;;;9.52;4.50;;;;;;;;;;5020966;28;20037;-66
2023/07/05 00:41:25;;;;;;;10.25;4.88;;;;;;;;;;5020157;28;20080;-66
2023/07/05 00:43:50;;;;;;;8.48;4.60;;;;;;;;;;5027818;28;20018;-66
2023/07/05 00:46:24;;;;;;;12.93;4.85;;;;;;;;;;5016031;28;20105;-66
2023/07/05 00:48:52;;;;;;;11.00;4.85;;;;;;;;;;5019663;28;20033;-66
2023/07/05 00:51:23;;;;;;;9.98;4.88;;;;;;;;;;5020449;28;20031;-66
2023/07/05 00:53:48;;;;;;;13.63;5.35;;;;;;;;;;5022258;28;20467;-66
2023/07/05 00:56:22;;;;;;;10.05;5.10;;;;;;;;;;5026938;28;20079;-66
2023/07/05 00:58:48;;;;;;;11.82;5.60;;;;;;;;;;5021965;28;20021;-66
2023/07/05 01:01:44;;;;;;;10.90;5.57;;;;;;;;;;5022467;28;20116;-66
2023/07/05 01:04:10;;;;;;;10.10;5.22;;;;;;;;;;5041492;22;20069;-65
2023/07/05 01:06:35;;;;;;;10.68;5.68;;;;;;;;;;5029389;28;20484;-65
2023/07/05 01:09:00;;;;;;;12.40;4.88;;;;;;;;;;5023678;28;20030;-65
2023/07/05 01:11:41;;;;;;;10.63;5.15;;;;;;;;;;5021599;28;20029;-65
2023/07/05 01:14:07;;;;;;;9.13;4.75;;;;;;;;;;5027692;28;20076;-65
2023/07/05 01:16:32;;;;;;;16.67;4.78;;;;;;;;;;5029126;28;20453;-65
2023/07/05 01:19:16;;;;;;;9.93;4.82;;;;;;;;;;5021260;28;20117;-65
2023/07/05 01:21:43;;;;;;;7.82;3.80;;;;;;;;;;5024264;28;20013;-65
2023/07/05 01:24:11;;;;;;;12.25;4.30;;;;;;;;;;5021929;28;20462;-65
2023/07/05 01:26:56;;;;;;;10.65;4.07;;;;;;;;;;5031090;28;20025;-66
2023/07/05 01:29:40;;;;;;;6.95;3.67;;;;;;;;;;5031030;28;20092;-65
2023/07/05 01:32:06;;;;;;;8.40;4.13;;;;;;;;;;5024176;28;20022;-65
2023/07/05 01:34:44;;;;;;;11.18;4.72;;;;;;;;;;5014647;28;20014;-66
2023/07/05 01:37:20;;;;;;;9.57;4.20;;;;;;;;;;5014731;28;20010;-65
2023/07/05 01:39:45;;;;;;;11.93;4.50;;;;;;;;;;5014452;28;20033;-65
2023/07/05 01:42:10;;;;;;;9.10;4.30;;;;;;;;;;5018326;28;20017;-65
2023/07/05 01:44:35;;;;;;;10.23;4.60;;;;;;;;;;5028013;28;20071;-66
2023/07/05 01:47:20;;;;;;;12.30;5.70;;;;;;;;;;5031690;28;20088;-65
2023/07/05 01:50:03;;;;;;;9.45;5.28;;;;;;;;;;5014390;28;20010;-65
2023/07/05 01:52:34;;;;;;;10.38;4.18;;;;;;;;;;5014523;28;20021;-65
2023/07/05 01:55:04;;;;;;;11.23;5.32;;;;;;;;;;5017702;28;20017;-65
2023/07/05 01:57:33;;;;;;;10.63;5.55;;;;;;;;;;5032861;28;20032;-65
2023/07/05 01:59:58;;;;;;;13.70;5.18;;;;;;;;;;5032777;28;20404;-65
2023/07/05 02:02:27;;;;;;;14.98;6.75;;;;;;;;;;5010379;28;20015;-65
2023/07/05 02:04:52;;;;;;;10.60;5.97;;;;;;;;;;4997013;28;20507;-65
2023/07/05 02:07:23;;;;;;;13.40;6.60;;;;;;;;;;4996492;28;20097;-65
2023/07/05 02:09:48;;;;;;;13.52;7.03;;;;;;;;;;5012897;28;20018;-65
2023/07/05 02:12:13;;;;;;;12.13;6.68;;;;;;;;;;5008703;28;20006;-66
2023/07/05 02:14:39;;;;;;;18.30;7.70;;;;;;;;;;5002738;28;20026;-66
2023/07/05 02:17:04;;;;;;;12.02;5.90;;;;;;;;;;5012847;28;20032;-65
2023/07/05 02:19:29;;;;;;;10.60;5.23;;;;;;;;;;4996088;28;20037;-65
2023/07/05 02:21:54;;;;;;;8.27;4.85;;;;;;;;;;5004545;28;20097;-66
2023/07/05 02:24:20;;;;;;;11.38;5.93;;;;;;;;;;5012536;28;20445;-66
2023/07/05 02:26:45;;;;;;;14.18;7.07;;;;;;;;;;5010892;28;20441;-65
2023/07/05 02:29:10;;;;;;;14.27;7.57;;;;;;;;;;5005923;28;20026;-65
2023/07/05 02:31:35;;;;;;;14.87;7.53;;;;;;;;;;4998896;28;20030;-65
2023/07/05 02:34:01;;;;;;;11.65;6.55;;;;;;;;;;5007161;28;20407;-65
2023/07/05 02:36:26;;;;;;;17.08;8.30;;;;;;;;;;4997749;28;20050;-65
2023/07/05 02:38:52;;;;;;;15.73;8.55;;;;;;;;;;5006530;28;20037;-66
2023/07/05 02:41:17;;;;;;;13.45;7.72;;;;;;;;;;4995733;28;20041;-65
2023/07/05 02:43:42;;;;;;;20.43;9.13;;;;;;;;;;5003355;28;20069;-70
2023/07/05 02:46:08;;;;;;;16.15;8.93;;;;;;;;;;5007589;28;20083;-69
2023/07/05 02:48:33;;;;;;;17.00;7.88;;;;;;;;;;5001784;28;20060;-69
2023/07/05 02:50:58;;;;;;;13.67;7.77;;;;;;;;;;5004209;28;20026;-69
2023/07/05 02:53:24;;;;;;;15.20;8.60;;;;;;;;;;5000089;28;20642;-69
2023/07/05 02:55:50;;;;;;;15.23;8.60;;;;;;;;;;4999149;28;20035;-69
2023/07/05 02:58:15;;;;;;;13.68;8.27;;;;;;;;;;4999355;28;20053;-65
2023/07/05 03:00:42;;;;;;;16.38;8.63;;;;;;;;;;5006509;28;20356;-65
2023/07/05 03:03:07;;;;;;;20.98;8.77;;;;;;;;;;5005990;28;20063;-65
2023/07/05 03:05:32;;;;;;;13.50;8.40;;;;;;;;;;5000193;28;20117;-66
2023/07/05 03:07:57;;;;;;;16.75;7.70;;;;;;;;;;5002474;28;20020;-65
2023/07/05 03:10:23;;;;;;;17.83;9.10;;;;;;;;;;4999596;28;20028;-65
2023/07/05 03:12:48;;;;;;;15.25;7.95;;;;;;;;;;5002060;28;20137;-65
2023/07/05 03:15:13;;;;;;;14.13;6.60;;;;;;;;;;5000128;28;20019;-66
2023/07/05 03:17:38;;;;;;;17.63;8.63;;;;;;;;;;4998469;28;20388;-66
2023/07/05 03:20:04;;;;;;;12.48;7.70;;;;;;;;;;4995467;28;20018;-65
2023/07/05 03:22:29;;;;;;;15.88;8.40;;;;;;;;;;4999722;28;20105;-65
2023/07/05 03:24:54;;;;;;;15.02;8.18;;;;;;;;;;5010161;28;20504;-65
2023/07/05 03:27:20;;;;;;;14.43;8.95;;;;;;;;;;5002593;28;20029;-65
2023/07/05 03:29:46;;;;;;;13.10;8.43;;;;;;;;;;5002124;28;20045;-65
2023/07/05 03:32:11;;;;;;;11.80;4.97;;;;;;;;;;5004180;28;20073;-65
2023/07/05 03:34:36;;;;;;;14.38;9.07;;;;;;;;;;4999840;28;20029;-65
2023/07/05 03:37:02;;;;;;;14.03;8.30;;;;;;;;;;5006427;28;20360;-65
2023/07/05 03:39:27;;;;;;;16.70;9.37;;;;;;;;;;4993155;28;20379;-65
2023/07/05 03:41:52;;;;;;;19.27;9.47;;;;;;;;;;4995154;28;20433;-65
2023/07/05 03:44:21;;;;;;;20.63;8.82;;;;;;;;;;4997799;28;20113;-65
2023/07/05 03:46:47;;;;;;;14.53;8.73;;;;;;;;;;5005359;28;20022;-66
2023/07/05 03:49:12;;;;;;;14.80;7.63;;;;;;;;;;4993722;28;20029;-65
2023/07/05 03:51:38;;;;;;;14.33;8.67;;;;;;;;;;4998853;28;20033;-65
2023/07/05 03:54:03;;;;;;;10.38;5.38;;;;;;;;;;4994658;28;20026;-65
2023/07/05 03:56:28;;;;;;;18.97;9.47;;;;;;;;;;4998758;28;20471;-65
2023/07/05 03:58:53;;;;;;;13.35;6.70;;;;;;;;;;5000749;28;20065;-65
2023/07/05 04:01:19;;;;;;;10.70;4.82;;;;;;;;;;5002207;28;20475;-65
2023/07/05 04:03:45;;;;;;;19.38;9.63;;;;;;;;;;5005678;28;20498;-65
2023/07/05 04:06:11;;;;;;;18.85;9.57;;;;;;;;;;4999066;28;20029;-65
2023/07/05 04:08:36;;;;;;;15.07;7.15;;;;;;;;;;5003560;28;20033;-66
2023/07/05 04:11:02;;;;;;;15.23;6.72;;;;;;;;;;5001684;28;20021;-65
2023/07/05 04:13:27;;;;;;;12.50;7.00;;;;;;;;;;4999035;28;20030;-65
2023/07/05 04:16:01;;;;;;;13.05;7.13;;;;;;;;;;5000395;28;20064;-65
2023/07/05 04:18:27;;;;;;;15.13;6.90;;;;;;;;;;5009685;28;20026;-65
2023/07/05 04:20:52;;;;;;;13.85;8.15;;;;;;;;;;5005613;28;20505;-65
2023/07/05 04:23:17;;;;;;;16.42;8.65;;;;;;;;;;5005220;28;20033;-65
2023/07/05 04:25:43;;;;;;;16.35;8.35;;;;;;;;;;5008218;28;20383;-65
2023/07/05 04:28:08;;;;;;;19.95;10.18;;;;;;;;;;5012835;28;20370;-65
2023/07/05 04:30:33;;;;;;;19.15;9.30;;;;;;;;;;5011765;28;20377;-65
2023/07/05 04:32:58;;;;;;;16.42;9.00;;;;;;;;;;5011544;28;20419;-65
2023/07/05 04:35:23;;;;;;;17.67;9.80;;;;;;;;;;5003464;28;20410;-64
2023/07/05 04:37:49;;;;;;;15.50;8.88;;;;;;;;;;5008794;28;20399;-65
2023/07/05 04:40:14;;;;;;;18.30;10.00;;;;;;;;;;5000134;28;20418;-65
2023/07/05 04:42:39;;;;;;;17.30;8.75;;;;;;;;;;5008146;28;20018;-65
2023/07/05 04:45:05;;;;;;;17.05;9.57;;;;;;;;;;5002113;28;20022;-66
2023/07/05 04:47:30;;;;;;;15.35;8.23;;;;;;;;;;5007359;28;20097;-65
2023/07/05 04:49:55;;;;;;;16.38;9.43;;;;;;;;;;5011296;28;20068;-65
2023/07/05 04:52:20;;;;;;;16.88;9.52;;;;;;;;;;5014028;28;20017;-66
2023/07/05 04:54:46;;;;;;;15.75;9.18;;;;;;;;;;5015866;28;20029;-65
2023/07/05 04:57:11;;;;;;;16.60;9.25;;;;;;;;;;5016326;28;20022;-65
2023/07/05 04:59:36;;;;;;;16.60;8.80;;;;;;;;;;5013597;28;20030;-65
2023/07/05 05:02:02;;;;;;;13.93;8.48;;;;;;;;;;5014876;28;20105;-65
2023/07/05 05:04:27;;;;;;;15.18;8.82;;;;;;;;;;5000833;28;20057;-66
2023/07/05 05:06:52;;;;;;;15.15;8.88;;;;;;;;;;5009860;28;20029;-66
2023/07/05 05:09:18;;;;;;;15.77;9.18;;;;;;;;;;5009826;28;20437;-66
2023/07/05 05:11:43;;;;;;;16.27;9.30;;;;;;;;;;5011077;28;20034;-66
2023/07/05 05:14:08;;;;;;;15.60;9.35;;;;;;;;;;5004381;28;20084;-65
2023/07/05 05:16:33;;;;;;;17.00;9.40;;;;;;;;;;5013093;28;20480;-65
2023/07/05 05:18:59;;;;;;;15.65;9.82;;;;;;;;;;5015447;28;20438;-65
2023/07/05 05:21:24;;;;;;;18.98;10.70;;;;;;;;;;5012307;28;20386;-66
2023/07/05 05:23:49;;;;;;;15.15;9.95;;;;;;;;;;5013624;28;20049;-66
2023/07/05 05:26:14;;;;;;;14.82;8.90;;;;;;;;;;5014610;28;20025;-66
2023/07/05 05:28:39;;;;;;;17.48;10.20;;;;;;;;;;5015368;28;20026;-66
2023/07/05 05:31:09;;;;;;;17.45;10.90;;;;;;;;;;5013934;28;20033;-66
2023/07/05 05:33:35;;;;;;;19.23;10.32;;;;;;;;;;4996488;28;20045;-66
2023/07/05 05:36:00;;;;;;;26.20;11.10;;;;;;;;;;5008767;28;20037;-66
2023/07/05 05:38:25;;;;;;;19.05;9.85;;;;;;;;;;5014818;28;20065;-66
2023/07/05 05:40:51;;;;;;;17.60;9.85;;;;;;;;;;5014475;28;20030;-66
2023/07/05 05:43:19;;;;;;;17.35;10.50;;;;;;;;;;5014450;28;20100;-66
2023/07/05 05:45:44;;;;;;;20.98;10.57;;;;;;;;;;5007397;28;20022;-66
2023/07/05 05:48:10;;;;;;;14.88;9.35;;;;;;;;;;5012202;28;20037;-67
2023/07/05 05:50:35;;;;;;;14.32;8.82;;;;;;;;;;5009876;28;20097;-64
2023/07/05 05:53:01;;;;;;;15.63;9.68;;;;;;;;;;5004212;28;20037;-64
2023/07/05 05:55:26;;;;;;;13.90;8.48;;;;;;;;;;5011621;28;20026;-66
2023/07/05 05:57:51;;;;;;;14.98;8.82;;;;;;;;;;5010129;28;20040;-65
2023/07/05 06:00:17;;;;;;;16.88;8.70;;;;;;;;;;5009724;28;20038;-66
2023/07/05 06:02:42;;;;;;;16.63;8.57;;;;;;;;;;5011081;28;20024;-65
2023/07/05 06:05:08;;;;;;;13.43;7.80;;;;;;;;;;5011182;28;20057;-65
2023/07/05 06:07:34;;;;;;;11.65;7.32;;;;;;;;;;5014342;28;20050;-65
2023/07/05 06:09:59;;;;;;;11.63;6.45;;;;;;;;;;5013023;28;20441;-65
2023/07/05 06:12:24;;;;;;;9.85;5.65;;;;;;;;;;5014620;28;20029;-66
2023/07/05 06:14:49;;;;;;;7.07;4.32;;;;;;;;;;5014639;28;20040;-66
2023/07/05 06:17:15;;;;;;;6.20;2.40;;;;;;;;;;5014455;28;20068;-65
2023/07/05 06:19:40;;;;;;;3.53;1.70;;;;;;;;;;5013453;28;20041;-66
2023/07/05 06:22:05;;;;;;;3.85;1.63;;;;;;;;;;5013596;28;20022;-66
2023/07/05 06:24:33;;;;;;;5.20;1.95;;;;;;;;;;5001974;28;20030;-66
2023/07/05 06:27:00;;;;;;;5.20;1.75;;;;;;;;;;5010178;28;20030;-66
2023/07/05 06:29:25;;;;;;;4.00;1.60;;;;;;;;;;5008119;28;20029;-65
2023/07/05 06:31:50;;;;;;;3.95;1.90;;;;;;;;;;5013388;28;20030;-66
2023/07/05 06:34:15;;;;;;;6.35;1.95;;;;;;;;;;5011446;28;20059;-66
2023/07/05 06:36:41;;;;;;;6.03;1.88;;;;;;;;;;5013044;28;20112;-66
2023/07/05 06:39:06;;;;;;;3.50;1.52;;;;;;;;;;5013762;28;20026;-66
2023/07/05 06:41:31;;;;;;;3.53;1.77;;;;;;;;;;5013754;28;20401;-66
2023/07/05 06:43:57;;;;;;;4.28;2.10;;;;;;;;;;5014118;28;20454;-66
2023/07/05 06:46:22;;;;;;;6.05;1.90;;;;;;;;;;5013455;28;20036;-67
2023/07/05 06:48:49;;;;;;;5.13;1.80;;;;;;;;;;5014317;28;20462;-66
2023/07/05 06:51:14;;;;;;;3.80;1.80;;;;;;;;;;5013491;28;20061;-67
2023/07/05 06:53:39;;;;;;;5.63;1.90;;;;;;;;;;5013291;28;20485;-67
2023/07/05 06:56:05;;;;;;;4.65;1.95;;;;;;;;;;5010751;28;20414;-67
2023/07/05 06:58:30;;;;;;;4.30;1.88;;;;;;;;;;5013909;28;20057;-67
2023/07/05 07:00:55;;;;;;;7.13;1.92;;;;;;;;;;5013713;28;20455;-66
2023/07/05 07:03:21;;;;;;;4.50;1.90;;;;;;;;;;5013774;28;20454;-67
2023/07/05 07:06:16;;;;;;;3.35;1.60;;;;;;;;;;5011080;28;20025;-67
2023/07/05 07:08:41;;;;;;;4.18;1.70;;;;;;;;;;4931837;29;20031;-65
2023/07/05 07:11:07;;;;;;;5.45;2.00;;;;;;;;;;4933876;29;20032;-66
2023/07/05 07:13:33;;;;;;;3.88;1.88;;;;;;;;;;4934202;29;20031;-65
2023/07/05 07:16:08;;;;;;;4.30;2.03;;;;;;;;;;4932793;29;20028;-65
2023/07/05 07:18:36;;;;;;;4.68;2.20;;;;;;;;;;4933155;29;20032;-65
2023/07/05 07:21:01;;;;;;;7.30;2.10;;;;;;;;;;4932575;29;20024;-66
2023/07/05 07:23:27;;;;;;;5.80;2.38;;;;;;;;;;4933465;29;20600;-65
2023/07/05 07:26:03;;;;;;;7.00;2.50;;;;;;;;;;4934034;29;20048;-66
2023/07/05 07:28:28;;;;;;;5.10;2.17;;;;;;;;;;4931005;29;20492;-65
2023/07/05 07:30:53;;;;;;;4.38;2.00;;;;;;;;;;4933748;29;20047;-65
2023/07/05 07:33:19;;;;;;;7.20;2.50;;;;;;;;;;4932993;29;20423;-66
2023/07/05 07:35:44;;;;;;;7.88;1.95;;;;;;;;;;4930740;29;20031;-65
2023/07/05 07:38:09;;;;;;;4.82;1.85;;;;;;;;;;4933212;29;20040;-65
2023/07/05 07:40:36;;;;;;;4.97;2.10;;;;;;;;;;4933656;29;20031;-67
2023/07/05 07:43:02;;;;;;;5.00;1.95;;;;;;;;;;4933819;29;20019;-65
2023/07/05 07:45:27;;;;;;;4.28;1.80;;;;;;;;;;4986125;28;20030;-65
2023/07/05 07:47:52;;;;;;;4.43;1.88;;;;;;;;;;5011699;28;20111;-65
2023/07/05 07:50:18;;;;;;;4.15;1.85;;;;;;;;;;5013494;28;20057;-65
2023/07/05 07:52:43;;;;;;;3.95;2.05;;;;;;;;;;5011497;28;20437;-65
2023/07/05 07:55:09;;;;;;;4.85;2.10;;;;;;;;;;5013249;28;20399;-65
2023/07/05 07:57:34;;;;;;;4.82;2.30;;;;;;;;;;5012103;28;20034;-65
2023/07/05 08:00:00;;;;;;;4.90;2.30;;;;;;;;;;5012736;28;20038;-65
2023/07/05 08:02:25;;;;;;;5.60;2.40;;;;;;;;;;5013012;28;20018;-66
2023/07/05 08:04:50;;;;;;;6.25;2.25;;;;;;;;;;5012956;28;20061;-65
2023/07/05 08:07:16;;;;;;;5.97;2.40;;;;;;;;;;5011654;28;20145;-66
2023/07/05 08:09:41;;;;;;;3.88;1.60;;;;;;;;;;5012987;28;20136;-66
2023/07/05 08:12:08;;;;;;;6.70;2.50;;;;;;;;;;5013033;28;20081;-66
2023/07/05 08:14:33;;;;;;;3.97;1.77;;;;;;;;;;5013443;28;20022;-65
2023/07/05 08:16:58;;;;;;;7.65;2.45;;;;;;;;;;5011878;28;20056;-65
2023/07/05 08:19:24;;;;;;;4.22;1.98;;;;;;;;;;5012601;28;20048;-66
2023/07/05 08:21:49;;;;;;;3.70;1.50;;;;;;;;;;5010895;28;20022;-65
2023/07/05 08:24:15;;;;;;;4.40;1.73;;;;;;;;;;5010911;28;20384;-66
2023/07/05 08:26:41;;;;;;;9.85;1.65;;;;;;;;;;5012492;28;20042;-66
2023/07/05 08:29:08;;;;;;;4.10;1.90;;;;;;;;;;5013139;28;20366;-66
2023/07/05 08:31:33;;;;;;;5.18;2.10;;;;;;;;;;4997606;28;20039;-67
2023/07/05 08:33:58;;;;;;;3.08;1.30;;;;;;;;;;4993417;28;20182;-66
2023/07/05 08:36:28;;;;;;;3.88;1.75;;;;;;;;;;4996331;28;20084;-66
2023/07/05 08:38:54;;;;;;;2.85;1.23;;;;;;;;;;5010306;28;20425;-66
2023/07/05 08:41:29;;;;;;;6.55;1.83;;;;;;;;;;5011752;28;20109;-65
2023/07/05 08:43:58;;;;;;;4.10;1.67;;;;;;;;;;5012594;28;20025;-65
2023/07/05 08:46:24;;;;;;;4.75;1.70;;;;;;;;;;5009194;28;20115;-66
2023/07/05 08:48:54;;;;;;;5.35;2.00;;;;;;;;;;5012892;28;20125;-67
2023/07/05 08:51:20;;;;;;;7.18;2.10;;;;;;;;;;5011259;28;20021;-67
2023/07/05 08:53:51;;;;;;;5.72;1.73;;;;;;;;;;5012530;28;20021;-66
2023/07/05 08:56:20;;;;;;;4.55;2.20;;;;;;;;;;5013302;28;20107;-66
2023/07/05 08:58:56;;;;;;;3.38;1.50;;;;;;;;;;5016323;28;20449;-66
2023/07/05 09:01:26;;;;;;;5.45;2.10;;;;;;;;;;5014507;28;20037;-66
2023/07/05 09:03:51;;;;;;;5.05;1.80;;;;;;;;;;5006373;28;20046;-66
2023/07/05 09:06:24;;;;;;;3.05;1.40;;;;;;;;;;5014467;28;20461;-66
2023/07/05 09:08:51;;;;;;;5.25;1.83;;;;;;;;;;5011693;28;20041;-65
2023/07/05 09:11:36;;;;;;;6.15;1.60;;;;;;;;;;5015848;28;20393;-65
2023/07/05 09:14:15;;;;;;;5.28;1.70;;;;;;;;;;5014422;28;20034;-65
2023/07/05 09:16:43;;;;;;;3.72;1.30;;;;;;;;;;5014722;28;20026;-65
2023/07/05 09:19:15;;;;;;;6.72;1.70;;;;;;;;;;5015985;28;20389;-64
2023/07/05 09:21:42;;;;;;;5.15;1.95;;;;;;;;;;5014753;28;20025;-65
2023/07/05 09:24:15;;;;;;;5.63;2.00;;;;;;;;;;5015889;28;20474;-64
2023/07/05 09:26:44;;;;;;;4.72;1.55;;;;;;;;;;5011850;28;20077;-64
2023/07/05 09:29:29;;;;;;;8.05;1.80;;;;;;;;;;5015789;28;20484;-64
2023/07/05 09:31:55;;;;;;;4.68;1.38;;;;;;;;;;5015831;28;20462;-64
2023/07/05 09:34:28;;;;;;;10.35;2.10;;;;;;;;;;5012057;28;20088;-64
2023/07/05 09:36:53;;;;;;;5.22;1.77;;;;;;;;;;5011721;28;20061;-65
2023/07/05 09:39:19;;;;;;;3.45;1.33;;;;;;;;;;5015630;28;20410;-64
2023/07/05 09:41:46;;;;;;;2.70;1.17;;;;;;;;;;5015171;28;20390;-64
2023/07/05 09:44:12;;;;;;;7.00;1.80;;;;;;;;;;5015239;28;20033;-65
2023/07/05 09:46:37;;;;;;;2.67;1.35;;;;;;;;;;5014418;28;20037;-65
2023/07/05 09:49:08;;;;;;;5.47;1.42;;;;;;;;;;5015486;28;20148;-65
2023/07/05 09:51:34;;;;;;;4.25;1.20;;;;;;;;;;5014139;28;20021;-65
2023/07/05 09:54:00;;;;;;;3.35;1.40;;;;;;;;;;5010426;28;20076;-65
2023/07/05 09:56:29;;;;;;;4.22;1.30;;;;;;;;;;5012197;28;20489;-66
2023/07/05 09:59:07;;;;;;;3.40;1.33;;;;;;;;;;5015255;28;20386;-65
2023/07/05 10:01:34;;;;;;;6.28;1.50;;;;;;;;;;5014945;28;20037;-65
2023/07/05 10:04:00;;;;;;;3.22;1.20;;;;;;;;;;5011835;28;20082;-66
2023/07/05 10:06:27;;;;;;;4.80;1.40;;;;;;;;;;5014692;28;20112;-65
2023/07/05 10:08:53;;;;;;;4.68;1.30;;;;;;;;;;5014218;28;20033;-65
2023/07/05 10:11:18;;;;;;;5.25;1.42;;;;;;;;;;5013840;28;20025;-65
2023/07/05 10:13:44;;;;;;;3.78;1.70;;;;;;;;;;5012896;28;20393;-65
2023/07/05 10:16:09;;;;;;;4.80;1.48;;;;;;;;;;5015106;28;20034;-65
2023/07/05 10:18:35;;;;;;;4.18;1.42;;;;;;;;;;5012977;28;20073;-65
2023/07/05 10:21:03;;;;;;;4.82;1.50;;;;;;;;;;5011725;28;20034;-65
2023/07/05 10:23:30;;;;;;;3.55;1.48;;;;;;;;;;5011213;28;20496;-65
2023/07/05 10:26:00;;;;;;;3.75;1.50;;;;;;;;;;4996723;28;20027;-65
2023/07/05 10:28:29;;;;;;;3.58;1.17;;;;;;;;;;5014122;28;20088;-66
2023/07/05 10:30:56;;;;;;;4.07;1.95;;;;;;;;;;5013404;28;20398;-65
2023/07/05 10:33:27;;;;;;;3.72;1.40;;;;;;;;;;5013116;28;20064;-66
2023/07/05 10:35:57;;;;;;;5.63;1.70;;;;;;;;;;5005866;28;20054;-65
2023/07/05 10:38:26;;;;;;;5.63;1.20;;;;;;;;;;5008204;28;20028;-65
2023/07/05 10:40:52;;;;;;;4.38;1.52;;;;;;;;;;5013333;28;20022;-66
2023/07/05 10:43:18;;;;;;;4.57;1.58;;;;;;;;;;5013476;28;20033;-66
2023/07/05 10:45:43;;;;;;;6.38;1.42;;;;;;;;;;5009571;28;20018;-65
2023/07/05 10:48:14;;;;;;;4.57;1.50;;;;;;;;;;5012952;28;20478;-66
2023/07/05 10:50:39;;;;;;;5.10;1.20;;;;;;;;;;5013737;28;20421;-66
2023/07/05 10:53:06;;;;;;;3.50;1.30;;;;;;;;;;5012172;28;20033;-66
2023/07/05 10:55:51;;;;;;;4.38;1.50;;;;;;;;;;5013551;28;20018;-66
2023/07/05 10:58:18;;;;;;;4.60;1.60;;;;;;;;;;4997244;28;20026;-66
2023/07/05 11:00:49;;;;;;;3.33;1.30;;;;;;;;;;5013048;28;20100;-65
2023/07/05 11:03:23;;;;;;;3.92;1.58;;;;;;;;;;5012021;28;20018;-66
2023/07/05 11:05:50;;;;;;;2.47;1.38;;;;;;;;;;5009131;28;20041;-65
2023/07/05 11:08:17;;;;;;;3.90;1.40;;;;;;;;;;5010508;28;20088;-65
2023/07/05 11:10:42;;;;;;;5.32;1.40;;;;;;;;;;5012396;28;20036;-65
2023/07/05 11:13:15;;;;;;;3.70;1.58;;;;;;;;;;5009779;28;20026;-65
2023/07/05 11:15:41;;;;;;;6.88;1.73;;;;;;;;;;5011018;28;20545;-65
2023/07/05 11:18:07;;;;;;;17.10;2.50;;;;;;;;;;4994289;28;20050;-66
2023/07/05 11:20:39;;;;;;;8.85;2.70;;;;;;;;;;4994061;28;20475;-65
2023/07/05 11:23:05;;;;;;;6.28;2.90;;;;;;;;;;5004148;28;20026;-65
2023/07/05 11:25:49;;;;;;;7.00;2.80;;;;;;;;;;5010418;28;20028;-65
2023/07/05 11:28:29;;;;;;;5.30;2.28;;;;;;;;;;5007577;28;20046;-65
2023/07/05 11:30:55;;;;;;;4.53;2.00;;;;;;;;;;4993955;28;20050;-66
2023/07/05 11:33:22;;;;;;;6.87;1.87;;;;;;;;;;4997051;28;20049;-65
2023/07/05 11:35:48;;;;;;;3.60;1.73;;;;;;;;;;5013204;28;20017;-66
2023/07/05 11:38:32;;;;;;;4.43;1.75;;;;;;;;;;5013877;28;20454;-66
2023/07/05 11:41:01;;;;;;;2.00;1.10;;;;;;;;;;5013121;28;20030;-66
2023/07/05 11:43:32;;;;;;;3.17;1.15;;;;;;;;;;5012008;28;20518;-66
2023/07/05 11:45:58;;;;;;;4.90;1.17;;;;;;;;;;5013507;28;20022;-65
2023/07/05 11:48:39;;;;;;;2.45;1.25;;;;;;;;;;5013571;28;20033;-66
2023/07/05 11:51:09;;;;;;;2.47;1.00;;;;;;;;;;5013173;28;20025;-66
2023/07/05 11:53:34;;;;;;;3.50;1.38;;;;;;;;;;5011456;28;20026;-66
2023/07/05 11:56:00;;;;;;;2.40;1.10;;;;;;;;;;5013285;28;20018;-66
2023/07/05 11:58:35;;;;;;;4.07;1.10;;;;;;;;;;5013478;28;20021;-66
2023/07/05 12:01:01;;;;;;;3.83;1.27;;;;;;;;;;5013130;28;20040;-66
2023/07/05 12:03:30;;;;;;;5.10;1.48;;;;;;;;;;5011509;28;20018;-66
2023/07/05 12:05:59;;;;;;;3.67;1.33;;;;;;;;;;5012795;28;20061;-66
2023/07/05 12:08:31;;;;;;;4.60;1.35;;;;;;;;;;5003648;28;20382;-66
2023/07/05 12:11:00;;;;;;;3.47;1.20;;;;;;;;;;5012581;28;20061;-66
2023/07/05 12:13:27;;;;;;;4.97;1.63;;;;;;;;;;5003386;28;20025;-66
2023/07/05 12:15:55;;;;;;;4.88;1.50;;;;;;;;;;5012660;28;20096;-66
2023/07/05 12:18:21;;;;;;;3.58;1.00;;;;;;;;;;5012544;28;20072;-67
2023/07/05 12:20:48;;;;;;;7.25;1.63;;;;;;;;;;5010418;28;20073;-67
2023/07/05 12:23:16;;;;;;;4.55;1.05;;;;;;;;;;5006973;28;20382;-67
2023/07/05 12:25:45;;;;;;;4.35;1.20;;;;;;;;;;5012215;28;20025;-66
2023/07/05 12:28:29;;;;;;;5.38;1.20;;;;;;;;;;5012757;28;20465;-67
2023/07/05 12:30:56;;;;;;;6.05;1.90;;;;;;;;;;5013762;28;20107;-67
2023/07/05 12:33:23;;;;;;;2.88;1.27;;;;;;;;;;5015815;28;20025;-67
2023/07/05 12:36:03;;;;;;;10.15;1.40;;;;;;;;;;5016080;28;20064;-67
2023/07/05 12:38:28;;;;;;;5.28;1.30;;;;;;;;;;5014457;28;20544;-66
2023/07/05 12:40:55;;;;;;;5.50;1.67;;;;;;;;;;5014752;28;20029;-66
2023/07/05 12:43:25;;;;;;;7.43;1.42;;;;;;;;;;5007772;28;20028;-66
2023/07/05 12:45:50;;;;;;;4.00;1.45;;;;;;;;;;5010981;28;20026;-67
2023/07/05 12:48:18;;;;;;;8.32;1.95;;;;;;;;;;5015831;28;20057;-67
2023/07/05 12:50:44;;;;;;;6.00;1.65;;;;;;;;;;5016197;28;20026;-67
2023/07/05 12:53:13;;;;;;;4.57;1.20;;;;;;;;;;5014541;28;20121;-67
2023/07/05 12:55:40;;;;;;;8.70;1.98;;;;;;;;;;5015196;28;20025;-66
2023/07/05 12:58:06;;;;;;;2.90;1.48;;;;;;;;;;5016119;28;20038;-66
2023/07/05 13:00:32;;;;;;;5.00;1.50;;;;;;;;;;5014218;28;20038;-66
2023/07/05 13:03:00;;;;;;;3.10;1.17;;;;;;;;;;5014800;28;20037;-66
2023/07/05 13:05:26;;;;;;;8.13;1.73;;;;;;;;;;5014547;28;20045;-67
2023/07/05 13:07:52;;;;;;;3.22;1.40;;;;;;;;;;5013856;28;20033;-67
2023/07/05 13:10:18;;;;;;;6.13;1.73;;;;;;;;;;5015839;28;20056;-67
2023/07/05 13:12:49;;;;;;;4.13;1.13;;;;;;;;;;5015604;28;20033;-67
2023/07/05 13:15:14;;;;;;;9.38;2.15;;;;;;;;;;5013761;28;20386;-66
2023/07/05 13:17:40;;;;;;;5.68;1.48;;;;;;;;;;5012484;28;20026;-65
2023/07/05 13:20:13;;;;;;;5.50;2.05;;;;;;;;;;5014060;28;20030;-65
2023/07/05 13:22:44;;;;;;;8.68;1.08;;;;;;;;;;5006747;28;20029;-65
2023/07/05 13:25:24;;;;;;;3.85;1.20;;;;;;;;;;5015450;28;20371;-66
2023/07/05 13:27:52;;;;;;;3.58;1.05;;;;;;;;;;5014449;28;20084;-65
2023/07/05 13:30:18;;;;;;;4.10;1.20;;;;;;;;;;5009647;28;20034;-65
2023/07/05 13:32:45;;;;;;;3.67;1.33;;;;;;;;;;5014174;28;20165;-65
2023/07/05 13:35:10;;;;;;;3.65;1.13;;;;;;;;;;5014361;28;20478;-65
2023/07/05 13:37:36;;;;;;;5.82;1.20;;;;;;;;;;5014070;28;20036;-65
2023/07/05 13:40:09;;;;;;;5.17;1.40;;;;;;;;;;5014473;28;20123;-66
2023/07/05 13:42:35;;;;;;;4.88;1.10;;;;;;;;;;5014041;28;20041;-66
2023/07/05 13:45:00;;;;;;;4.20;1.20;;;;;;;;;;5014891;28;20018;-67
2023/07/05 13:47:25;;;;;;;6.60;1.20;;;;;;;;;;5013841;28;20037;-67
2023/07/05 13:49:51;;;;;;;4.18;1.27;;;;;;;;;;5014768;28;20109;-66
2023/07/05 13:52:18;;;;;;;4.45;0.93;;;;;;;;;;5014798;28;20042;-67
2023/07/05 13:54:45;;;;;;;2.50;0.90;;;;;;;;;;5012239;28;20045;-66
2023/07/05 13:57:17;;;;;;;2.72;1.10;;;;;;;;;;5013905;28;20080;-67
2023/07/05 13:59:43;;;;;;;5.35;1.27;;;;;;;;;;5013108;28;20045;-67
2023/07/05 14:02:27;;;;;;;3.58;1.17;;;;;;;;;;5006750;28;20486;-67
2023/07/05 14:04:53;;;;;;;4.63;1.20;;;;;;;;;;5013902;28;20060;-67
2023/07/05 14:07:18;;;;;;;3.10;0.95;;;;;;;;;;5014259;28;20474;-67
2023/07/05 14:09:43;;;;;;;4.20;1.00;;;;;;;;;;5012670;28;20018;-66
2023/07/05 14:12:14;;;;;;;6.05;1.10;;;;;;;;;;5014217;28;20026;-66
2023/07/05 14:14:39;;;;;;;3.90;1.10;;;;;;;;;;5014172;28;20029;-66
2023/07/05 14:17:04;;;;;;;4.50;1.40;;;;;;;;;;5014348;28;20030;-66
2023/07/05 14:19:29;;;;;;;7.70;1.50;;;;;;;;;;5013072;28;20080;-66
2023/07/05 14:21:55;;;;;;;9.85;1.40;;;;;;;;;;5014213;28;20068;-67
2023/07/05 14:24:20;;;;;;;4.18;1.20;;;;;;;;;;5011751;28;20053;-67
2023/07/05 14:26:46;;;;;;;4.13;1.20;;;;;;;;;;5012696;28;20049;-67
2023/07/05 14:29:13;;;;;;;3.00;1.20;;;;;;;;;;5013176;28;20021;-66
2023/07/05 14:31:38;;;;;;;3.67;1.00;;;;;;;;;;5013041;28;20109;-67
2023/07/05 14:34:03;;;;;;;3.78;1.10;;;;;;;;;;5007722;28;20115;-67
2023/07/05 14:36:29;;;;;;;4.07;1.25;;;;;;;;;;5001974;28;20041;-67
2023/07/05 14:38:54;;;;;;;4.85;1.20;;;;;;;;;;5002413;28;20036;-66